Latest Weather Observations for Busselton Airport

IDW60801

Issued at 11:32 am WST Thursday 30 July 2015 (issued every 30 minutes, with the page automatically refreshed every 10 minutes)

About weather observations | Map of weather stations | Latest weather observations for WA | Other Formats
Station Details ID: 009603 Name: BUSSELTON AERO Lat: -33.69 Lon: 115.40 Height: 16.3 m
Data from the previous 72 hours. | See also: Recent months at Busselton Airport
Date/Time
WST
Temp
°C
App
Temp
°C
Dew
Point
Rel
Hum
%
Delta-T
°C
Wind Press
QNH
hPa
Press
MSL
hPa
Rain
since 9 am
mm
Dir
 
Spd
km/h
Gust
km/h
Spd
kts
Gust
kts
30/11:30am 16.4 15.5 15.9 97 0.3 ESE 15 19 8 10 1019.7 1019.8 0.8
30/11:00am 15.8 15.3 15.0 95 0.5 ENE 11 15 6 8 1019.9 1020.0 0.2
30/10:30am 15.8 14.8 15.6 99 0.1 E 15 20 8 11 1020.0 1020.1 0.0
30/10:00am 15.1 13.9 15.1 100 0.0 E 15 19 8 10 1020.3 1020.4 0.0
30/09:30am 14.3 12.4 14.3 100 0.0 E 17 19 9 10 1020.3 1020.4 0.0
30/09:00am 13.6 12.7 13.6 100 0.0 E 11 15 6 8 1020.4 1020.5 0.2
30/08:30am 13.2 12.1 13.2 100 0.0 E 11 13 6 7 1020.3 1020.4 0.2
30/08:00am 12.4 11.1 12.4 100 0.0 E 11 13 6 7 1019.9 1020.0 0.2
30/07:30am 11.6 10.4 11.6 100 0.0 ESE 9 11 5 6 1019.8 1019.9 0.2
30/07:00am 11.7 10.1 11.7 100 0.0 SE 11 13 6 7 1019.7 1019.8 0.0
30/06:30am 12.0 10.2 12.0 100 0.0 SE 13 15 7 8 1019.7 1019.8 0.0
30/06:00am 12.3 10.9 12.3 100 0.0 E 11 15 6 8 1019.6 1019.7 0.0
30/05:30am 12.1 10.3 12.1 100 0.0 E 13 17 7 9 1019.4 1019.5 0.0
30/05:00am 11.0 8.5 11.0 100 0.0 ESE 15 17 8 9 1018.9 1019.0 0.0
30/04:30am 9.1 7.7 9.0 99 0.0 ESE 6 7 3 4 1019.4 1019.5 0.0
30/04:00am 9.5 8.1 9.5 100 0.0 E 7 9 4 5 1019.5 1019.6 0.0
30/03:30am 10.3 8.7 10.3 100 0.0 E 9 11 5 6 1019.4 1019.5 0.0
30/03:00am 10.8 9.4 10.8 100 0.0 ESE 9 11 5 6 1019.5 1019.6 0.0
30/02:30am 12.3 11.9 12.3 100 0.0 SSE 6 9 3 5 1019.5 1019.6 0.0
30/02:00am 12.4 12.0 12.4 100 0.0 SE 6 7 3 4 1019.8 1019.9 0.0
30/01:30am 11.9 10.4 11.9 100 0.0 S 11 13 6 7 1019.9 1020.0 0.0
30/01:00am 10.6 10.1 10.6 100 0.0 S 4 11 2 6 1019.9 1020.0 0.0
30/12:30am 10.2 9.9 10.2 100 0.0 SW 2 9 1 5 1019.8 1019.9 0.0
30/12:00am 9.5 8.1 9.4 99 0.0 ENE 7 9 4 5 1019.7 1019.8 0.0
 
Date/Time
WST
Temp
°C
App
Temp
°C
Dew
Point
Rel
Hum
%
Delta-T
°C
Wind Press
QNH
hPa
Press
MSL
hPa
Rain
since 9 am
mm
Dir
 
Spd
km/h
Gust
km/h
Spd
kts
Gust
kts
29/11:30pm 9.7 8.3 9.6 99 0.0 SSE 7 7 4 4 1019.6 1019.7 0.0
29/11:00pm 8.9 7.3 8.8 99 0.0 ESE 7 9 4 5 1019.6 1019.7 0.0
29/10:30pm 9.5 8.3 9.4 99 0.0 E 6 7 3 4 1019.6 1019.7 0.0
29/10:00pm 9.7 8.5 9.6 99 0.0 SSE 6 7 3 4 1019.8 1019.9 0.0
29/09:30pm 10.3 9.0 10.1 99 0.1 SSE 7 9 4 5 1019.6 1019.7 0.0
29/09:00pm 10.5 9.3 10.3 99 0.1 S 7 9 4 5 1019.5 1019.6 0.0
29/08:30pm 11.1 10.1 10.9 99 0.1 ESE 7 9 4 5 1019.3 1019.4 0.0
29/08:00pm 11.9 11.3 11.7 99 0.1 ENE 6 7 3 4 1019.2 1019.3 0.0
29/07:30pm 12.0 11.8 11.8 99 0.1 SSE 4 7 2 4 1018.8 1018.9 0.0
29/07:00pm 12.1 12.6 11.5 96 0.3 CALM 0 0 0 0 1018.5 1018.6 0.0
29/06:30pm 13.2 12.8 12.4 95 0.4 ESE 6 7 3 4 1018.1 1018.1 0.0
29/06:00pm 14.6 14.6 13.5 93 0.6 SSW 6 7 3 4 1017.9 1017.9 0.0
29/05:30pm 16.5 17.0 14.9 90 0.9 NNW 6 7 3 4 1017.4 1017.4 0.0
29/05:00pm 17.4 17.9 15.6 89 1.1 NNW 7 11 4 6 1017.4 1017.4 0.0
29/04:30pm 17.3 17.4 15.6 90 1.0 N 9 11 5 6 1017.4 1017.4 0.0
29/04:00pm 17.8 17.2 15.6 87 1.3 N 13 17 7 9 1017.4 1017.4 0.0
29/03:30pm 17.7 17.1 15.7 88 1.2 N 13 15 7 8 1016.8 1016.8 0.0
29/03:00pm 17.9 17.2 15.5 86 1.4 N 13 17 7 9 1016.7 1016.7 0.0
29/02:30pm 17.9 17.3 15.7 87 1.3 N 13 15 7 8 1016.6 1016.6 0.0
29/02:00pm 17.7 17.1 15.7 88 1.2 N 13 17 7 9 1016.5 1016.5 0.0
29/01:30pm 17.8 16.3 15.2 85 1.5 N 17 20 9 11 1016.7 1016.7 0.0
29/01:00pm 18.1 17.4 15.5 85 1.5 N 13 17 7 9 1016.8 1016.8 0.0
29/12:30pm 17.7 17.1 15.7 88 1.2 N 13 17 7 9 1017.2 1017.2 0.0
29/12:00pm 17.4 17.5 17.4 100 0.0 NNE 13 17 7 9 1017.3 1017.3 0.0
29/11:30am 15.9 16.2 15.9 100 0.0 NE 9 13 5 7 1017.4 1017.4 0.0
29/11:00am 15.2 15.2 15.2 100 0.0 NE 9 15 5 8 1017.8 1017.8 0.0
29/10:30am 14.6 14.4 14.6 100 0.0 ENE 9 13 5 7 1017.7 1017.7 0.0
29/10:00am 14.1 13.3 14.1 100 0.0 ENE 11 13 6 7 1018.1 1018.1 0.0
29/09:30am 13.7 12.8 13.7 100 0.0 E 11 15 6 8 1018.0 1018.0 0.0
29/09:00am 12.3 12.3 12.3 100 0.0 ESE 4 7 2 4 1018.2 1018.3 3.0
29/08:30am 11.6 10.8 11.6 100 0.0 ENE 7 11 4 6 1017.8 1017.8 3.0
29/08:00am 9.9 8.2 9.9 100 0.0 ENE 9 13 5 7 1017.5 1017.5 3.0
29/07:30am 9.3 8.4 9.3 100 0.0 E 4 6 2 3 1017.4 1017.4 3.0
29/07:00am 9.8 8.1 9.8 100 0.0 ESE 9 11 5 6 1017.0 1017.0 3.0
29/06:30am 10.9 9.9 10.9 100 0.0 SE 7 7 4 4 1017.1 1017.1 3.0
29/06:00am 10.8 9.9 10.8 100 0.0 E 6 6 3 3 1017.0 1017.0 3.0
29/05:30am 10.7 10.9 10.7 100 0.0 CALM 0 0 0 0 1016.7 1016.7 3.0
29/05:00am 10.4 10.6 10.4 100 0.0 CALM 0 0 0 0 1016.7 1016.7 3.0
29/04:30am 9.9 9.9 9.9 100 0.0 CALM 0 0 0 0 1016.6 1016.6 3.0
29/04:00am 9.5 9.4 9.5 100 0.0 CALM 0 0 0 0 1016.8 1016.8 3.0
29/03:30am 9.0 8.0 9.0 100 0.0 S 4 7 2 4 1016.7 1016.7 3.0
29/03:00am 8.2 6.5 8.2 100 0.0 SW 7 9 4 5 1016.6 1016.6 3.0
29/02:30am 8.0 6.4 7.9 99 0.0 SW 6 7 3 4 1016.5 1016.5 3.0
29/02:00am 7.3 5.3 7.2 99 0.0 SW 7 7 4 4 1016.6 1016.6 3.0
29/01:30am 7.9 6.3 7.8 99 0.0 SW 6 6 3 3 1016.8 1016.8 3.0
29/01:00am 8.0 6.8 7.9 99 0.0 S 4 7 2 4 1016.6 1016.6 3.0
29/12:30am 8.3 6.7 8.2 99 0.0 SE 6 7 3 4 1016.6 1016.6 3.0
29/12:00am 9.6 8.4 9.5 99 0.0 ESE 6 6 3 3 1016.6 1016.6 3.0
 
Date/Time
WST
Temp
°C
App
Temp
°C
Dew
Point
Rel
Hum
%
Delta-T
°C
Wind Press
QNH
hPa
Press
MSL
hPa
Rain
since 9 am
mm
Dir
 
Spd
km/h
Gust
km/h
Spd
kts
Gust
kts
28/11:30pm 10.0 8.7 9.9 99 0.1 ESE 7 9 4 5 1016.7 1016.7 2.8
28/11:00pm 11.3 9.6 11.3 100 0.0 E 11 13 6 7 1016.7 1016.7 2.8
28/10:30pm 11.6 10.4 11.6 100 0.0 ENE 9 13 5 7 1016.8 1016.8 2.8
28/10:00pm 12.2 11.2 12.2 100 0.0 E 9 13 5 7 1016.6 1016.6 2.8
28/09:30pm 12.4 11.4 12.4 100 0.0 ENE 9 13 5 7 1016.9 1016.9 2.8
28/09:00pm 12.6 11.3 12.6 100 0.0 ENE 11 13 6 7 1016.5 1016.5 2.8
28/08:30pm 12.7 11.8 12.7 100 0.0 SE 9 11 5 6 1016.8 1016.8 2.8
28/08:00pm 12.6 11.7 12.6 100 0.0 SE 9 11 5 6 1016.6 1016.6 2.8
28/07:30pm 12.6 11.7 12.6 100 0.0 ESE 9 11 5 6 1016.3 1016.3 2.8
28/07:00pm 12.6 11.7 12.6 100 0.0 ESE 9 11 5 6 1016.2 1016.2 2.6
28/06:30pm 12.6 12.1 12.6 100 0.0 ESE 7 9 4 5 1015.9 1015.9 2.6
28/06:00pm 12.6 12.0 12.4 99 0.1 ESE 7 9 4 5 1015.4 1015.4 2.4
28/05:30pm 12.5 12.1 12.3 99 0.1 ESE 6 9 3 5 1015.4 1015.4 2.4
28/05:00pm 12.6 12.0 12.4 99 0.1 ESE 7 9 4 5 1015.3 1015.3 1.8
28/04:30pm 12.5 11.9 12.2 98 0.2 ENE 7 11 4 6 1015.1 1015.1 1.2
28/04:00pm 12.4 10.4 11.5 94 0.5 E 13 15 7 8 1015.0 1015.0 0.4
28/03:30pm 12.9 9.9 10.8 87 1.1 ENE 17 20 9 11 1015.0 1015.0 0.0
28/03:00pm 13.7 11.8 10.5 81 1.7 ENE 11 15 6 8 1015.0 1015.0 0.0
28/02:30pm 14.0 12.1 10.6 80 1.8 ENE 11 17 6 9 1015.1 1015.1 0.0
28/02:00pm 14.1 11.4 10.5 79 1.9 NE 15 20 8 11 1015.3 1015.3 0.0
28/01:30pm 13.8 11.0 10.0 78 2.0 NNE 15 19 8 10 1015.7 1015.7 0.0
28/01:00pm 14.6 10.8 9.8 73 2.5 NNE 20 28 11 15 1016.0 1016.0 0.0
28/12:30pm 14.8 10.8 10.4 75 2.3 NNE 22 28 12 15 1016.6 1016.6 0.0
28/12:00pm 14.5 9.4 9.3 71 2.7 NNE 26 35 14 19 1016.8 1016.8 0.0
28/11:30am 14.3 10.2 8.5 68 2.9 NE 20 28 11 15 1017.6 1017.6 0.0
28/11:00am 13.7 10.3 9.0 73 2.4 NE 17 20 9 11 1018.3 1018.4 0.0
28/10:30am 14.2 10.9 9.6 74 2.4 NE 17 20 9 11 1018.4 1018.5 0.0
28/10:00am 14.0 11.3 10.4 79 1.9 ENE 15 20 8 11 1018.8 1018.9 0.0
28/09:30am 12.3 9.5 9.9 85 1.2 ENE 15 20 8 11 1019.0 1019.1 0.0
28/09:00am 11.6 8.0 10.0 90 0.8 ENE 19 24 10 13 1019.2 1019.3 2.4
28/08:30am 11.4 8.6 10.0 91 0.7 ENE 15 19 8 10 1019.7 1019.8 2.2
28/08:00am 10.9 8.6 10.3 96 0.3 E 13 17 7 9 1019.6 1019.7 2.2
28/07:30am 10.6 8.9 10.0 96 0.3 ESE 9 11 5 6 1020.1 1020.2 2.2
28/07:00am 10.6 8.6 10.0 96 0.3 E 11 13 6 7 1020.2 1020.3 2.2
28/06:30am 10.5 8.8 9.9 96 0.3 E 9 11 5 6 1020.5 1020.6 2.0
28/06:00am 10.5 7.6 9.6 94 0.4 ESE 15 17 8 9 1020.2 1020.3 1.8
28/05:30am 11.8 10.2 10.2 90 0.8 ENE 9 13 5 7 1020.8 1020.9 1.6
28/05:00am 12.7 9.3 10.4 86 1.2 N 19 22 10 12 1021.2 1021.3 1.2
28/04:30am 13.0 9.6 10.4 84 1.3 NNE 19 24 10 13 1021.0 1021.1 0.8
28/04:00am 12.9 9.7 9.9 82 1.5 NNE 17 20 9 11 1021.0 1021.1 0.4
28/03:30am 12.4 10.0 8.7 78 1.8 NNE 11 17 6 9 1021.1 1021.2 0.2
28/03:00am 12.0 9.6 6.9 71 2.4 NE 9 13 5 7 1021.2 1021.3 0.0
28/02:30am 11.5 9.4 6.8 73 2.2 ENE 7 11 4 6 1021.2 1021.3 0.0
28/02:00am 11.8 8.3 7.1 73 2.2 ENE 15 17 8 9 1021.3 1021.4 0.0
28/01:30am 11.4 8.4 7.5 77 1.9 NE 13 15 7 8 1022.0 1022.1 0.0
28/01:00am 10.9 8.6 7.4 79 1.7 ENE 9 11 5 6 1022.1 1022.2 0.0
28/12:30am 11.1 9.1 7.2 77 1.9 ENE 7 9 4 5 1022.3 1022.4 0.0
28/12:00am 11.1 9.2 7.4 78 1.8 E 7 9 4 5 1022.6 1022.7 0.0
 
Date/Time
WST
Temp
°C
App
Temp
°C
Dew
Point
Rel
Hum
%
Delta-T
°C
Wind Press
QNH
hPa
Press
MSL
hPa
Rain
since 9 am
mm
Dir
 
Spd
km/h
Gust
km/h
Spd
kts
Gust
kts
27/11:30pm 10.9 9.2 7.4 79 1.7 NE 6 7 3 4 1023.2 1023.3 0.0
27/11:00pm 10.7 8.1 7.6 81 1.5 E 11 13 6 7 1023.1 1023.2 0.0
27/10:30pm 11.1 9.3 7.8 80 1.6 E 7 9 4 5 1023.7 1023.7 0.0
27/10:00pm 10.9 8.7 7.8 81 1.5 E 9 11 5 6 1023.9 1023.9 0.0
27/09:30pm 11.4 8.9 8.1 80 1.6 E 11 13 6 7 1024.0 1024.0 0.0
27/09:00pm 10.7 8.7 8.6 87 1.0 E 9 11 5 6 1023.8 1023.8 0.0
27/08:30pm 10.0 7.8 7.9 87 1.0 ESE 9 11 5 6 1024.0 1024.0 0.0
27/08:00pm 10.4 8.8 8.2 86 1.1 ESE 6 7 3 4 1024.4 1024.4 0.0
27/07:30pm 10.6 8.5 8.4 86 1.1 ESE 9 13 5 7 1024.7 1024.7 0.0
27/07:00pm 10.2 8.5 7.4 83 1.3 ESE 6 9 3 5 1025.1 1025.1 0.0
27/06:30pm 11.1 10.2 7.8 80 1.6 SSE 2 7 1 4 1025.5 1025.5 0.0
27/06:00pm 12.4 12.0 8.3 76 2.0 CALM 0 0 0 0 1025.7 1025.7 0.0
27/05:30pm 14.1 13.7 8.1 67 3.0 CALM 0 0 0 0 1025.5 1025.5 0.0
27/05:00pm 15.0 14.5 7.8 62 3.6 CALM 0 0 0 0 1025.3 1025.3 0.0
27/04:30pm 15.2 13.7 8.4 64 3.4 NW 6 7 3 4 1025.0 1025.0 0.0
27/04:00pm 16.2 14.0 7.9 58 4.2 N 9 11 5 6 1024.8 1024.8 0.0
27/03:30pm 17.1 15.1 6.9 51 5.1 NNW 7 13 4 7 1025.0 1025.0 0.0
27/03:00pm 17.5 15.1 7.0 50 5.2 N 9 13 5 7 1025.2 1025.2 0.0
27/02:30pm 17.7 16.2 9.1 57 4.5 WNW 7 9 4 5 1025.6 1025.6 0.0
27/02:00pm 16.9 15.1 8.1 56 4.4 NNW 7 13 4 7 1025.8 1025.8 0.0
27/01:30pm 16.3 14.5 8.0 58 4.2 N 7 11 4 6 1026.2 1026.2 0.0
27/01:00pm 15.1 12.0 7.2 59 3.9 N 13 15 7 8 1026.7 1026.7 0.0
27/12:30pm 14.5 10.9 6.8 60 3.7 N 15 20 8 11 1027.4 1027.4 0.0
27/12:00pm 15.2 12.0 7.0 58 4.0 N 13 20 7 11 1028.3 1028.3 0.0

Other Formats:

Comma delimited format used in spreadsheet applications
http://www.bom.gov.au/fwo/IDW60801/IDW60801.95611.axf

JavaScript Object Notation format (JSON) in row-major order
http://www.bom.gov.au/fwo/IDW60801/IDW60801.95611.json